sensor_id;sensor_type;location;lat;lon;timestamp;P1;durP1;ratioP1;P2;durP2;ratioP2
32333;SDS011;18810;53.040;8.850;2022-11-20T00:01:04;31.40;;;17.58;;
32333;SDS011;18810;53.040;8.850;2022-11-20T00:03:35;33.85;;;18.10;;
32333;SDS011;18810;53.040;8.850;2022-11-20T00:06:01;30.20;;;17.13;;
32333;SDS011;18810;53.040;8.850;2022-11-20T00:08:28;32.60;;;18.42;;
32333;SDS011;18810;53.040;8.850;2022-11-20T00:10:55;28.85;;;17.35;;
32333;SDS011;18810;53.040;8.850;2022-11-20T00:13:21;28.52;;;17.83;;
32333;SDS011;18810;53.040;8.850;2022-11-20T00:15:47;33.33;;;17.80;;
32333;SDS011;18810;53.040;8.850;2022-11-20T00:18:13;27.85;;;17.45;;
32333;SDS011;18810;53.040;8.850;2022-11-20T00:20:38;31.65;;;18.23;;
32333;SDS011;18810;53.040;8.850;2022-11-20T00:23:04;32.40;;;18.58;;
32333;SDS011;18810;53.040;8.850;2022-11-20T00:25:33;33.75;;;19.35;;
32333;SDS011;18810;53.040;8.850;2022-11-20T00:28:00;34.42;;;19.83;;
32333;SDS011;18810;53.040;8.850;2022-11-20T00:30:25;31.98;;;18.40;;
32333;SDS011;18810;53.040;8.850;2022-11-20T00:32:51;28.52;;;17.60;;
32333;SDS011;18810;53.040;8.850;2022-11-20T00:35:17;31.35;;;17.50;;
32333;SDS011;18810;53.040;8.850;2022-11-20T00:37:42;32.53;;;18.98;;
32333;SDS011;18810;53.040;8.850;2022-11-20T00:40:08;32.58;;;17.77;;
32333;SDS011;18810;53.040;8.850;2022-11-20T00:42:34;33.92;;;18.60;;
32333;SDS011;18810;53.040;8.850;2022-11-20T00:45:00;30.30;;;17.95;;
32333;SDS011;18810;53.040;8.850;2022-11-20T00:47:26;31.20;;;17.75;;
32333;SDS011;18810;53.040;8.850;2022-11-20T00:49:54;32.72;;;19.00;;
32333;SDS011;18810;53.040;8.850;2022-11-20T00:52:20;30.40;;;18.45;;
32333;SDS011;18810;53.040;8.850;2022-11-20T00:54:46;34.85;;;20.38;;
32333;SDS011;18810;53.040;8.850;2022-11-20T00:57:11;33.35;;;18.88;;
32333;SDS011;18810;53.040;8.850;2022-11-20T00:59:37;37.72;;;21.00;;
32333;SDS011;18810;53.040;8.850;2022-11-20T01:02:03;32.55;;;18.63;;
32333;SDS011;18810;53.040;8.850;2022-11-20T01:04:28;30.17;;;18.33;;
32333;SDS011;18810;53.040;8.850;2022-11-20T01:06:54;32.15;;;18.65;;
32333;SDS011;18810;53.040;8.850;2022-11-20T01:09:20;36.90;;;20.73;;
32333;SDS011;18810;53.040;8.850;2022-11-20T01:11:46;32.25;;;20.25;;
32333;SDS011;18810;53.040;8.850;2022-11-20T01:14:16;34.70;;;19.42;;
32333;SDS011;18810;53.040;8.850;2022-11-20T01:16:44;34.50;;;18.85;;
32333;SDS011;18810;53.040;8.850;2022-11-20T01:19:15;36.50;;;19.87;;
32333;SDS011;18810;53.040;8.850;2022-11-20T01:21:43;31.83;;;18.77;;
32333;SDS011;18810;53.040;8.850;2022-11-20T01:24:11;34.40;;;19.70;;
32333;SDS011;18810;53.040;8.850;2022-11-20T01:26:39;34.35;;;19.90;;
32333;SDS011;18810;53.040;8.850;2022-11-20T01:29:06;33.10;;;20.10;;
32333;SDS011;18810;53.040;8.850;2022-11-20T01:31:36;36.92;;;20.58;;
32333;SDS011;18810;53.040;8.850;2022-11-20T01:34:03;43.03;;;22.38;;
32333;SDS011;18810;53.040;8.850;2022-11-20T01:36:35;42.13;;;22.60;;
32333;SDS011;18810;53.040;8.850;2022-11-20T01:39:03;39.08;;;21.52;;
32333;SDS011;18810;53.040;8.850;2022-11-20T01:41:35;36.88;;;20.95;;
32333;SDS011;18810;53.040;8.850;2022-11-20T01:44:21;36.75;;;21.35;;
32333;SDS011;18810;53.040;8.850;2022-11-20T01:47:07;35.30;;;20.25;;
32333;SDS011;18810;53.040;8.850;2022-11-20T01:49:36;32.53;;;19.65;;
32333;SDS011;18810;53.040;8.850;2022-11-20T01:52:13;40.28;;;21.70;;
32333;SDS011;18810;53.040;8.850;2022-11-20T01:54:46;39.08;;;21.90;;
32333;SDS011;18810;53.040;8.850;2022-11-20T01:57:18;35.40;;;20.58;;
32333;SDS011;18810;53.040;8.850;2022-11-20T01:59:47;34.47;;;20.75;;
32333;SDS011;18810;53.040;8.850;2022-11-20T02:02:20;34.75;;;20.40;;
32333;SDS011;18810;53.040;8.850;2022-11-20T02:04:46;37.42;;;20.83;;
32333;SDS011;18810;53.040;8.850;2022-11-20T02:07:14;31.48;;;19.70;;
32333;SDS011;18810;53.040;8.850;2022-11-20T02:09:40;35.35;;;20.15;;
32333;SDS011;18810;53.040;8.850;2022-11-20T02:12:06;37.15;;;21.00;;
32333;SDS011;18810;53.040;8.850;2022-11-20T02:14:52;43.25;;;23.40;;
32333;SDS011;18810;53.040;8.850;2022-11-20T02:17:17;46.53;;;23.15;;
32333;SDS011;18810;53.040;8.850;2022-11-20T02:19:43;44.97;;;23.48;;
32333;SDS011;18810;53.040;8.850;2022-11-20T02:22:11;44.28;;;24.40;;
32333;SDS011;18810;53.040;8.850;2022-11-20T02:24:44;42.50;;;23.25;;
32333;SDS011;18810;53.040;8.850;2022-11-20T02:27:11;39.05;;;23.00;;
32333;SDS011;18810;53.040;8.850;2022-11-20T02:29:40;41.53;;;23.73;;
32333;SDS011;18810;53.040;8.850;2022-11-20T02:34:50;37.50;;;21.25;;
32333;SDS011;18810;53.040;8.850;2022-11-20T02:37:16;40.20;;;20.92;;
32333;SDS011;18810;53.040;8.850;2022-11-20T02:39:43;38.17;;;21.92;;
32333;SDS011;18810;53.040;8.850;2022-11-20T02:42:11;34.72;;;20.60;;
32333;SDS011;18810;53.040;8.850;2022-11-20T02:44:36;33.80;;;19.00;;
32333;SDS011;18810;53.040;8.850;2022-11-20T02:47:02;33.97;;;19.80;;
32333;SDS011;18810;53.040;8.850;2022-11-20T02:49:28;33.97;;;19.05;;
32333;SDS011;18810;53.040;8.850;2022-11-20T02:51:54;36.53;;;19.90;;
32333;SDS011;18810;53.040;8.850;2022-11-20T02:54:19;34.10;;;19.00;;
32333;SDS011;18810;53.040;8.850;2022-11-20T02:56:45;33.65;;;18.48;;
32333;SDS011;18810;53.040;8.850;2022-11-20T02:59:11;34.45;;;18.80;;
32333;SDS011;18810;53.040;8.850;2022-11-20T03:01:36;34.58;;;18.92;;
32333;SDS011;18810;53.040;8.850;2022-11-20T03:04:02;33.65;;;18.50;;
32333;SDS011;18810;53.040;8.850;2022-11-20T03:06:28;34.53;;;17.88;;
32333;SDS011;18810;53.040;8.850;2022-11-20T03:08:54;30.88;;;17.70;;
32333;SDS011;18810;53.040;8.850;2022-11-20T03:11:19;26.95;;;16.60;;
32333;SDS011;18810;53.040;8.850;2022-11-20T03:13:45;30.55;;;17.17;;
32333;SDS011;18810;53.040;8.850;2022-11-20T03:16:15;30.20;;;17.42;;
32333;SDS011;18810;53.040;8.850;2022-11-20T03:18:43;30.38;;;17.63;;
32333;SDS011;18810;53.040;8.850;2022-11-20T03:21:09;35.72;;;18.15;;
32333;SDS011;18810;53.040;8.850;2022-11-20T03:23:37;30.52;;;17.27;;
32333;SDS011;18810;53.040;8.850;2022-11-20T03:26:17;30.98;;;18.20;;
32333;SDS011;18810;53.040;8.850;2022-11-20T03:28:48;30.67;;;17.63;;
32333;SDS011;18810;53.040;8.850;2022-11-20T03:31:16;30.75;;;17.23;;
32333;SDS011;18810;53.040;8.850;2022-11-20T03:33:43;28.05;;;17.23;;
32333;SDS011;18810;53.040;8.850;2022-11-20T03:36:10;28.63;;;16.75;;
32333;SDS011;18810;53.040;8.850;2022-11-20T03:38:38;33.20;;;18.08;;
32333;SDS011;18810;53.040;8.850;2022-11-20T03:41:05;32.83;;;19.13;;
32333;SDS011;18810;53.040;8.850;2022-11-20T03:43:35;30.70;;;17.52;;
32333;SDS011;18810;53.040;8.850;2022-11-20T03:46:01;30.20;;;17.08;;
32333;SDS011;18810;53.040;8.850;2022-11-20T03:48:27;28.52;;;17.42;;
32333;SDS011;18810;53.040;8.850;2022-11-20T03:51:06;30.80;;;16.80;;
32333;SDS011;18810;53.040;8.850;2022-11-20T03:53:42;31.50;;;17.60;;
32333;SDS011;18810;53.040;8.850;2022-11-20T03:56:10;31.50;;;18.23;;
32333;SDS011;18810;53.040;8.850;2022-11-20T03:58:37;28.10;;;16.73;;
32333;SDS011;18810;53.040;8.850;2022-11-20T04:01:13;33.70;;;17.13;;
32333;SDS011;18810;53.040;8.850;2022-11-20T04:03:44;28.98;;;17.42;;
32333;SDS011;18810;53.040;8.850;2022-11-20T04:06:12;28.25;;;17.13;;
32333;SDS011;18810;53.040;8.850;2022-11-20T04:08:42;28.92;;;17.83;;
32333;SDS011;18810;53.040;8.850;2022-11-20T04:11:12;31.65;;;18.25;;
32333;SDS011;18810;53.040;8.850;2022-11-20T04:13:47;29.15;;;16.60;;
32333;SDS011;18810;53.040;8.850;2022-11-20T04:16:14;31.25;;;17.25;;
32333;SDS011;18810;53.040;8.850;2022-11-20T04:18:41;29.60;;;17.48;;
32333;SDS011;18810;53.040;8.850;2022-11-20T04:21:08;37.03;;;17.88;;
32333;SDS011;18810;53.040;8.850;2022-11-20T04:23:34;32.03;;;17.13;;
32333;SDS011;18810;53.040;8.850;2022-11-20T04:26:05;30.00;;;16.80;;
32333;SDS011;18810;53.040;8.850;2022-11-20T04:28:35;31.25;;;17.20;;
32333;SDS011;18810;53.040;8.850;2022-11-20T04:31:02;29.80;;;17.55;;
32333;SDS011;18810;53.040;8.850;2022-11-20T04:33:32;34.03;;;17.15;;
32333;SDS011;18810;53.040;8.850;2022-11-20T04:36:00;31.92;;;17.33;;
32333;SDS011;18810;53.040;8.850;2022-11-20T04:38:30;31.23;;;18.60;;
32333;SDS011;18810;53.040;8.850;2022-11-20T04:40:57;29.77;;;18.25;;
32333;SDS011;18810;53.040;8.850;2022-11-20T04:43:24;29.95;;;18.05;;
32333;SDS011;18810;53.040;8.850;2022-11-20T04:45:50;30.25;;;17.35;;
32333;SDS011;18810;53.040;8.850;2022-11-20T04:48:20;30.13;;;17.52;;
32333;SDS011;18810;53.040;8.850;2022-11-20T04:50:46;30.60;;;18.05;;
32333;SDS011;18810;53.040;8.850;2022-11-20T04:53:11;26.02;;;16.85;;
32333;SDS011;18810;53.040;8.850;2022-11-20T04:55:37;28.20;;;16.45;;
32333;SDS011;18810;53.040;8.850;2022-11-20T04:58:03;27.65;;;16.20;;
32333;SDS011;18810;53.040;8.850;2022-11-20T05:00:29;26.15;;;16.35;;
32333;SDS011;18810;53.040;8.850;2022-11-20T05:02:54;29.15;;;16.15;;
32333;SDS011;18810;53.040;8.850;2022-11-20T05:05:20;26.17;;;14.95;;
32333;SDS011;18810;53.040;8.850;2022-11-20T05:07:46;24.17;;;15.15;;
32333;SDS011;18810;53.040;8.850;2022-11-20T05:10:12;23.67;;;14.15;;
32333;SDS011;18810;53.040;8.850;2022-11-20T05:12:37;24.30;;;14.32;;
32333;SDS011;18810;53.040;8.850;2022-11-20T05:15:03;26.40;;;15.85;;
32333;SDS011;18810;53.040;8.850;2022-11-20T05:17:29;28.30;;;15.95;;
32333;SDS011;18810;53.040;8.850;2022-11-20T05:19:55;24.55;;;15.05;;
32333;SDS011;18810;53.040;8.850;2022-11-20T05:22:21;25.10;;;14.15;;
32333;SDS011;18810;53.040;8.850;2022-11-20T05:24:46;23.83;;;14.43;;
32333;SDS011;18810;53.040;8.850;2022-11-20T05:27:12;26.63;;;14.73;;
32333;SDS011;18810;53.040;8.850;2022-11-20T05:29:38;25.30;;;14.63;;
32333;SDS011;18810;53.040;8.850;2022-11-20T05:32:03;23.38;;;14.93;;
32333;SDS011;18810;53.040;8.850;2022-11-20T05:34:31;24.70;;;14.55;;
32333;SDS011;18810;53.040;8.850;2022-11-20T05:36:57;28.08;;;14.20;;
32333;SDS011;18810;53.040;8.850;2022-11-20T05:39:22;21.38;;;13.75;;
32333;SDS011;18810;53.040;8.850;2022-11-20T05:41:48;23.15;;;13.57;;
32333;SDS011;18810;53.040;8.850;2022-11-20T05:44:34;23.98;;;13.60;;
32333;SDS011;18810;53.040;8.850;2022-11-20T05:46:59;20.73;;;13.38;;
32333;SDS011;18810;53.040;8.850;2022-11-20T05:49:25;25.15;;;14.18;;
32333;SDS011;18810;53.040;8.850;2022-11-20T05:51:51;21.30;;;12.45;;
32333;SDS011;18810;53.040;8.850;2022-11-20T05:54:16;21.90;;;13.23;;
32333;SDS011;18810;53.040;8.850;2022-11-20T05:56:42;23.98;;;13.95;;
32333;SDS011;18810;53.040;8.850;2022-11-20T05:59:08;22.90;;;13.48;;
32333;SDS011;18810;53.040;8.850;2022-11-20T06:01:33;22.42;;;12.80;;
32333;SDS011;18810;53.040;8.850;2022-11-20T06:04:01;19.95;;;12.90;;
32333;SDS011;18810;53.040;8.850;2022-11-20T06:06:27;22.40;;;12.90;;
32333;SDS011;18810;53.040;8.850;2022-11-20T06:08:55;23.98;;;12.43;;
32333;SDS011;18810;53.040;8.850;2022-11-20T06:11:21;22.50;;;13.18;;
32333;SDS011;18810;53.040;8.850;2022-11-20T06:13:47;18.38;;;11.95;;
32333;SDS011;18810;53.040;8.850;2022-11-20T06:16:14;21.77;;;11.68;;
32333;SDS011;18810;53.040;8.850;2022-11-20T06:18:41;23.58;;;12.32;;
32333;SDS011;18810;53.040;8.850;2022-11-20T06:21:11;21.23;;;11.60;;
32333;SDS011;18810;53.040;8.850;2022-11-20T06:23:39;19.27;;;12.20;;
32333;SDS011;18810;53.040;8.850;2022-11-20T06:26:09;18.98;;;11.88;;
32333;SDS011;18810;53.040;8.850;2022-11-20T06:28:36;22.88;;;12.15;;
32333;SDS011;18810;53.040;8.850;2022-11-20T06:31:03;20.45;;;12.57;;
32333;SDS011;18810;53.040;8.850;2022-11-20T06:33:29;21.65;;;13.15;;
32333;SDS011;18810;53.040;8.850;2022-11-20T06:35:58;23.23;;;12.70;;
32333;SDS011;18810;53.040;8.850;2022-11-20T06:38:25;20.42;;;13.23;;
32333;SDS011;18810;53.040;8.850;2022-11-20T06:40:52;20.23;;;12.20;;
32333;SDS011;18810;53.040;8.850;2022-11-20T06:43:18;22.58;;;13.45;;
32333;SDS011;18810;53.040;8.850;2022-11-20T06:45:44;21.83;;;13.13;;
32333;SDS011;18810;53.040;8.850;2022-11-20T06:48:10;23.23;;;12.88;;
32333;SDS011;18810;53.040;8.850;2022-11-20T06:50:36;24.08;;;14.70;;
32333;SDS011;18810;53.040;8.850;2022-11-20T06:53:02;23.92;;;13.52;;
32333;SDS011;18810;53.040;8.850;2022-11-20T06:55:29;22.25;;;12.75;;
32333;SDS011;18810;53.040;8.850;2022-11-20T06:57:56;27.13;;;14.85;;
32333;SDS011;18810;53.040;8.850;2022-11-20T07:00:22;27.90;;;16.33;;
32333;SDS011;18810;53.040;8.850;2022-11-20T07:02:48;26.85;;;15.65;;
32333;SDS011;18810;53.040;8.850;2022-11-20T07:05:14;25.80;;;14.88;;
32333;SDS011;18810;53.040;8.850;2022-11-20T07:07:40;31.05;;;15.88;;
32333;SDS011;18810;53.040;8.850;2022-11-20T07:10:07;25.40;;;14.93;;
32333;SDS011;18810;53.040;8.850;2022-11-20T07:12:33;28.50;;;16.08;;
32333;SDS011;18810;53.040;8.850;2022-11-20T07:14:59;27.58;;;14.80;;
32333;SDS011;18810;53.040;8.850;2022-11-20T07:17:24;26.17;;;15.35;;
32333;SDS011;18810;53.040;8.850;2022-11-20T07:19:50;27.63;;;14.68;;
32333;SDS011;18810;53.040;8.850;2022-11-20T07:22:16;27.02;;;15.50;;
32333;SDS011;18810;53.040;8.850;2022-11-20T07:24:42;24.85;;;15.30;;
32333;SDS011;18810;53.040;8.850;2022-11-20T07:27:08;22.05;;;13.85;;
32333;SDS011;18810;53.040;8.850;2022-11-20T07:29:33;26.02;;;14.77;;
32333;SDS011;18810;53.040;8.850;2022-11-20T07:31:59;23.55;;;13.82;;
32333;SDS011;18810;53.040;8.850;2022-11-20T07:34:25;19.50;;;12.73;;
32333;SDS011;18810;53.040;8.850;2022-11-20T07:36:51;22.50;;;13.80;;
32333;SDS011;18810;53.040;8.850;2022-11-20T07:39:16;25.35;;;14.35;;
32333;SDS011;18810;53.040;8.850;2022-11-20T07:41:42;22.20;;;13.48;;
32333;SDS011;18810;53.040;8.850;2022-11-20T07:44:08;23.30;;;14.00;;
32333;SDS011;18810;53.040;8.850;2022-11-20T07:46:33;20.02;;;13.35;;
32333;SDS011;18810;53.040;8.850;2022-11-20T07:48:59;21.42;;;13.98;;
32333;SDS011;18810;53.040;8.850;2022-11-20T07:51:25;22.55;;;14.43;;
32333;SDS011;18810;53.040;8.850;2022-11-20T07:53:54;23.48;;;13.68;;
32333;SDS011;18810;53.040;8.850;2022-11-20T07:56:20;27.25;;;15.18;;
32333;SDS011;18810;53.040;8.850;2022-11-20T07:58:46;26.00;;;14.07;;
32333;SDS011;18810;53.040;8.850;2022-11-20T08:01:12;22.38;;;13.95;;
32333;SDS011;18810;53.040;8.850;2022-11-20T08:03:40;21.92;;;13.88;;
32333;SDS011;18810;53.040;8.850;2022-11-20T08:06:06;22.20;;;13.88;;
32333;SDS011;18810;53.040;8.850;2022-11-20T08:08:32;22.42;;;14.00;;
32333;SDS011;18810;53.040;8.850;2022-11-20T08:10:58;23.83;;;13.98;;
32333;SDS011;18810;53.040;8.850;2022-11-20T08:13:42;26.35;;;15.07;;
32333;SDS011;18810;53.040;8.850;2022-11-20T08:16:26;23.63;;;13.30;;
32333;SDS011;18810;53.040;8.850;2022-11-20T08:18:53;31.55;;;15.52;;
32333;SDS011;18810;53.040;8.850;2022-11-20T08:21:19;24.08;;;13.73;;
32333;SDS011;18810;53.040;8.850;2022-11-20T08:23:44;24.15;;;13.95;;
32333;SDS011;18810;53.040;8.850;2022-11-20T08:26:10;23.30;;;14.00;;
32333;SDS011;18810;53.040;8.850;2022-11-20T08:28:36;28.00;;;13.90;;
32333;SDS011;18810;53.040;8.850;2022-11-20T08:31:02;23.42;;;14.15;;
32333;SDS011;18810;53.040;8.850;2022-11-20T08:33:28;21.98;;;12.45;;
32333;SDS011;18810;53.040;8.850;2022-11-20T08:35:58;20.17;;;12.68;;
32333;SDS011;18810;53.040;8.850;2022-11-20T08:38:25;21.98;;;13.57;;
32333;SDS011;18810;53.040;8.850;2022-11-20T08:40:50;22.65;;;13.27;;
32333;SDS011;18810;53.040;8.850;2022-11-20T08:43:34;25.42;;;13.07;;
32333;SDS011;18810;53.040;8.850;2022-11-20T08:46:00;21.98;;;12.88;;
32333;SDS011;18810;53.040;8.850;2022-11-20T08:48:26;18.02;;;12.80;;
32333;SDS011;18810;53.040;8.850;2022-11-20T08:50:51;28.55;;;17.65;;
32333;SDS011;18810;53.040;8.850;2022-11-20T08:53:17;23.73;;;14.45;;
32333;SDS011;18810;53.040;8.850;2022-11-20T08:55:43;18.50;;;12.57;;
32333;SDS011;18810;53.040;8.850;2022-11-20T08:58:08;20.92;;;13.68;;
32333;SDS011;18810;53.040;8.850;2022-11-20T09:00:34;23.77;;;14.43;;
32333;SDS011;18810;53.040;8.850;2022-11-20T09:03:00;19.52;;;12.93;;
32333;SDS011;18810;53.040;8.850;2022-11-20T09:05:27;20.27;;;12.55;;
32333;SDS011;18810;53.040;8.850;2022-11-20T09:07:56;19.30;;;11.98;;
32333;SDS011;18810;53.040;8.850;2022-11-20T09:10:22;20.08;;;13.10;;
32333;SDS011;18810;53.040;8.850;2022-11-20T09:12:51;20.35;;;12.32;;
32333;SDS011;18810;53.040;8.850;2022-11-20T09:15:18;19.93;;;12.60;;
32333;SDS011;18810;53.040;8.850;2022-11-20T09:17:53;21.17;;;12.27;;
32333;SDS011;18810;53.040;8.850;2022-11-20T09:20:20;18.20;;;12.10;;
32333;SDS011;18810;53.040;8.850;2022-11-20T09:22:46;19.20;;;11.70;;
32333;SDS011;18810;53.040;8.850;2022-11-20T09:25:12;20.73;;;11.68;;
32333;SDS011;18810;53.040;8.850;2022-11-20T09:27:38;18.98;;;12.07;;
32333;SDS011;18810;53.040;8.850;2022-11-20T09:30:04;23.17;;;12.82;;
32333;SDS011;18810;53.040;8.850;2022-11-20T09:32:30;18.10;;;12.05;;
32333;SDS011;18810;53.040;8.850;2022-11-20T09:34:56;20.52;;;12.57;;
32333;SDS011;18810;53.040;8.850;2022-11-20T09:37:22;17.75;;;11.00;;
32333;SDS011;18810;53.040;8.850;2022-11-20T09:39:47;22.67;;;12.60;;
32333;SDS011;18810;53.040;8.850;2022-11-20T09:42:27;20.48;;;12.02;;
32333;SDS011;18810;53.040;8.850;2022-11-20T09:50:32;19.63;;;12.55;;
32333;SDS011;18810;53.040;8.850;2022-11-20T09:53:24;22.15;;;13.45;;
32333;SDS011;18810;53.040;8.850;2022-11-20T09:56:11;20.10;;;12.15;;
32333;SDS011;18810;53.040;8.850;2022-11-20T10:01:11;20.42;;;13.32;;
32333;SDS011;18810;53.040;8.850;2022-11-20T10:03:49;22.13;;;12.90;;
32333;SDS011;18810;53.040;8.850;2022-11-20T10:06:31;22.20;;;12.65;;
32333;SDS011;18810;53.040;8.850;2022-11-20T10:30:15;25.38;;;14.93;;
32333;SDS011;18810;53.040;8.850;2022-11-20T10:32:47;22.40;;;14.60;;
32333;SDS011;18810;53.040;8.850;2022-11-20T10:35:21;22.70;;;14.60;;
32333;SDS011;18810;53.040;8.850;2022-11-20T10:38:00;25.98;;;14.73;;
32333;SDS011;18810;53.040;8.850;2022-11-20T10:40:53;22.15;;;13.65;;
32333;SDS011;18810;53.040;8.850;2022-11-20T10:43:42;26.95;;;15.57;;
32333;SDS011;18810;53.040;8.850;2022-11-20T10:46:10;21.40;;;14.13;;
32333;SDS011;18810;53.040;8.850;2022-11-20T10:48:49;24.48;;;15.38;;
32333;SDS011;18810;53.040;8.850;2022-11-20T11:01:41;25.15;;;16.08;;
32333;SDS011;18810;53.040;8.850;2022-11-20T11:04:14;24.33;;;14.95;;
32333;SDS011;18810;53.040;8.850;2022-11-20T11:07:01;20.77;;;13.80;;
32333;SDS011;18810;53.040;8.850;2022-11-20T11:09:59;29.52;;;16.35;;
32333;SDS011;18810;53.040;8.850;2022-11-20T11:12:26;26.92;;;15.50;;
32333;SDS011;18810;53.040;8.850;2022-11-20T11:14:57;22.75;;;14.25;;
32333;SDS011;18810;53.040;8.850;2022-11-20T11:22:42;26.75;;;15.65;;
32333;SDS011;18810;53.040;8.850;2022-11-20T11:25:24;25.02;;;15.18;;
32333;SDS011;18810;53.040;8.850;2022-11-20T11:27:50;24.73;;;15.23;;
32333;SDS011;18810;53.040;8.850;2022-11-20T11:30:17;28.17;;;16.23;;
32333;SDS011;18810;53.040;8.850;2022-11-20T11:32:45;31.98;;;17.20;;
32333;SDS011;18810;53.040;8.850;2022-11-20T11:35:21;27.45;;;17.05;;
32333;SDS011;18810;53.040;8.850;2022-11-20T11:37:49;48.53;;;25.90;;
32333;SDS011;18810;53.040;8.850;2022-11-20T11:40:17;41.22;;;22.27;;
32333;SDS011;18810;53.040;8.850;2022-11-20T11:42:49;29.10;;;18.20;;
32333;SDS011;18810;53.040;8.850;2022-11-20T11:45:21;33.83;;;21.33;;
32333;SDS011;18810;53.040;8.850;2022-11-20T11:47:48;30.20;;;19.25;;
32333;SDS011;18810;53.040;8.850;2022-11-20T11:55:40;27.98;;;17.55;;
32333;SDS011;18810;53.040;8.850;2022-11-20T12:06:47;20.98;;;12.60;;
32333;SDS011;18810;53.040;8.850;2022-11-20T12:09:18;20.77;;;12.35;;
32333;SDS011;18810;53.040;8.850;2022-11-20T12:11:56;19.65;;;12.00;;
32333;SDS011;18810;53.040;8.850;2022-11-20T12:14:34;18.65;;;12.18;;
32333;SDS011;18810;53.040;8.850;2022-11-20T12:17:03;17.73;;;12.35;;
32333;SDS011;18810;53.040;8.850;2022-11-20T12:19:30;18.25;;;12.35;;
32333;SDS011;18810;53.040;8.850;2022-11-20T12:24:44;21.98;;;13.45;;
32333;SDS011;18810;53.040;8.850;2022-11-20T12:44:20;17.83;;;11.70;;
32333;SDS011;18810;53.040;8.850;2022-11-20T12:50:15;18.50;;;12.82;;
32333;SDS011;18810;53.040;8.850;2022-11-20T12:58:39;23.30;;;12.93;;
32333;SDS011;18810;53.040;8.850;2022-11-20T13:01:24;20.00;;;12.57;;
32333;SDS011;18810;53.040;8.850;2022-11-20T13:06:46;19.20;;;13.18;;
32333;SDS011;18810;53.040;8.850;2022-11-20T13:09:14;19.80;;;12.75;;
32333;SDS011;18810;53.040;8.850;2022-11-20T13:11:47;19.63;;;13.07;;
32333;SDS011;18810;53.040;8.850;2022-11-20T13:19:39;18.05;;;13.02;;
32333;SDS011;18810;53.040;8.850;2022-11-20T13:22:07;21.05;;;13.43;;
32333;SDS011;18810;53.040;8.850;2022-11-20T13:24:34;20.15;;;13.25;;
32333;SDS011;18810;53.040;8.850;2022-11-20T13:29:31;20.95;;;13.20;;
32333;SDS011;18810;53.040;8.850;2022-11-20T13:32:14;20.92;;;13.48;;
32333;SDS011;18810;53.040;8.850;2022-11-20T13:34:52;25.67;;;14.43;;
32333;SDS011;18810;53.040;8.850;2022-11-20T13:42:37;26.45;;;16.60;;
32333;SDS011;18810;53.040;8.850;2022-11-20T13:45:09;24.50;;;14.70;;
32333;SDS011;18810;53.040;8.850;2022-11-20T13:47:37;22.17;;;14.73;;
32333;SDS011;18810;53.040;8.850;2022-11-20T13:50:03;26.42;;;15.57;;
32333;SDS011;18810;53.040;8.850;2022-11-20T13:55:49;27.42;;;16.13;;
32333;SDS011;18810;53.040;8.850;2022-11-20T14:00:52;27.55;;;16.05;;
32333;SDS011;18810;53.040;8.850;2022-11-20T14:03:25;25.52;;;15.80;;
32333;SDS011;18810;53.040;8.850;2022-11-20T14:06:02;27.65;;;18.05;;
32333;SDS011;18810;53.040;8.850;2022-11-20T14:08:36;29.17;;;16.92;;
32333;SDS011;18810;53.040;8.850;2022-11-20T14:11:14;28.65;;;17.85;;
32333;SDS011;18810;53.040;8.850;2022-11-20T14:16:40;33.72;;;18.77;;
32333;SDS011;18810;53.040;8.850;2022-11-20T14:21:49;30.25;;;18.88;;
32333;SDS011;18810;53.040;8.850;2022-11-20T14:24:22;32.65;;;19.77;;
32333;SDS011;18810;53.040;8.850;2022-11-20T14:26:49;28.63;;;18.80;;
32333;SDS011;18810;53.040;8.850;2022-11-20T14:29:17;31.20;;;19.92;;
32333;SDS011;18810;53.040;8.850;2022-11-20T14:31:50;30.25;;;19.33;;
32333;SDS011;18810;53.040;8.850;2022-11-20T14:34:19;27.90;;;17.65;;
32333;SDS011;18810;53.040;8.850;2022-11-20T14:36:47;30.45;;;19.20;;
32333;SDS011;18810;53.040;8.850;2022-11-20T14:39:20;29.75;;;18.30;;
32333;SDS011;18810;53.040;8.850;2022-11-20T14:41:50;28.33;;;18.58;;
32333;SDS011;18810;53.040;8.850;2022-11-20T14:44:17;32.85;;;18.77;;
32333;SDS011;18810;53.040;8.850;2022-11-20T14:46:45;28.75;;;17.92;;
32333;SDS011;18810;53.040;8.850;2022-11-20T14:49:11;27.83;;;17.45;;
32333;SDS011;18810;53.040;8.850;2022-11-20T14:51:38;29.10;;;17.90;;
32333;SDS011;18810;53.040;8.850;2022-11-20T14:54:15;28.00;;;17.27;;
32333;SDS011;18810;53.040;8.850;2022-11-20T14:59:26;31.90;;;18.40;;
32333;SDS011;18810;53.040;8.850;2022-11-20T15:02:01;35.75;;;20.00;;
32333;SDS011;18810;53.040;8.850;2022-11-20T15:04:30;37.97;;;21.77;;
32333;SDS011;18810;53.040;8.850;2022-11-20T15:06:56;45.03;;;24.30;;
32333;SDS011;18810;53.040;8.850;2022-11-20T15:09:23;35.63;;;20.85;;
32333;SDS011;18810;53.040;8.850;2022-11-20T15:11:56;37.53;;;22.70;;
32333;SDS011;18810;53.040;8.850;2022-11-20T15:14:25;33.33;;;20.70;;
32333;SDS011;18810;53.040;8.850;2022-11-20T15:16:53;34.10;;;21.65;;
32333;SDS011;18810;53.040;8.850;2022-11-20T15:19:20;40.17;;;23.80;;
32333;SDS011;18810;53.040;8.850;2022-11-20T15:21:47;38.10;;;21.88;;
32333;SDS011;18810;53.040;8.850;2022-11-20T15:24:14;34.88;;;20.95;;
32333;SDS011;18810;53.040;8.850;2022-11-20T15:26:40;38.70;;;22.58;;
32333;SDS011;18810;53.040;8.850;2022-11-20T15:29:09;38.20;;;21.27;;
32333;SDS011;18810;53.040;8.850;2022-11-20T15:34:08;35.05;;;20.67;;
32333;SDS011;18810;53.040;8.850;2022-11-20T15:36:38;34.40;;;20.33;;
32333;SDS011;18810;53.040;8.850;2022-11-20T15:39:05;37.22;;;21.27;;
32333;SDS011;18810;53.040;8.850;2022-11-20T15:41:32;31.85;;;19.73;;
32333;SDS011;18810;53.040;8.850;2022-11-20T15:43:59;33.45;;;19.15;;
32333;SDS011;18810;53.040;8.850;2022-11-20T15:46:26;32.65;;;19.55;;
32333;SDS011;18810;53.040;8.850;2022-11-20T15:48:54;31.77;;;18.83;;
32333;SDS011;18810;53.040;8.850;2022-11-20T15:53:54;30.35;;;18.75;;
32333;SDS011;18810;53.040;8.850;2022-11-20T15:56:21;37.72;;;23.42;;
32333;SDS011;18810;53.040;8.850;2022-11-20T15:58:47;39.55;;;23.33;;
32333;SDS011;18810;53.040;8.850;2022-11-20T16:01:13;45.33;;;26.30;;
32333;SDS011;18810;53.040;8.850;2022-11-20T16:03:41;44.75;;;27.67;;
32333;SDS011;18810;53.040;8.850;2022-11-20T16:06:07;43.75;;;26.45;;
32333;SDS011;18810;53.040;8.850;2022-11-20T16:08:33;42.30;;;25.00;;
32333;SDS011;18810;53.040;8.850;2022-11-20T16:10:59;45.03;;;25.08;;
32333;SDS011;18810;53.040;8.850;2022-11-20T16:13:25;37.22;;;22.70;;
32333;SDS011;18810;53.040;8.850;2022-11-20T16:16:19;35.58;;;23.10;;
32333;SDS011;18810;53.040;8.850;2022-11-20T16:18:50;38.53;;;23.77;;
32333;SDS011;18810;53.040;8.850;2022-11-20T16:21:16;37.55;;;23.17;;
32333;SDS011;18810;53.040;8.850;2022-11-20T16:23:42;33.88;;;21.05;;
32333;SDS011;18810;53.040;8.850;2022-11-20T16:26:15;34.45;;;18.95;;
32333;SDS011;18810;53.040;8.850;2022-11-20T16:28:45;33.97;;;20.70;;
32333;SDS011;18810;53.040;8.850;2022-11-20T16:31:15;33.65;;;19.95;;
32333;SDS011;18810;53.040;8.850;2022-11-20T16:33:42;35.65;;;21.25;;
32333;SDS011;18810;53.040;8.850;2022-11-20T16:36:12;42.10;;;24.98;;